Terminal Aerodrome Forecast
Issued by NWS

Home | Current Version | Previous Version | Graphics & Text | Print | Product List | Glossary On
Versions: 1 2 3 4 5 6 7 8 9 10 11 12 13 14 15 16 17 18 19
000
FTUS42 KMHX 220200 AAA
TAFISO
TAF AMD
KISO 220252Z 2203/2224 00000KT P6SM SCT009 BKN035
      TEMPO 2203/2206 5SM BR BKN009
     FM220600 00000KT 3SM BR SCT007 BKN120
     FM221400 09006KT 6SM BR VCTS SCT015 BKN035CB
      AMD LTD TO CLD VIS AND WIND=

USA.gov is the U.S. government's official web portal to all federal, state and local government web resources and services.